sensor_id;sensor_type;location;lat;lon;timestamp;temperature;humidity
19813;DHT22;10066;48.108;11.448;2023-06-26T00:00:55;16.30;99.90
19813;DHT22;10066;48.108;11.448;2023-06-26T00:03:22;16.20;99.90
19813;DHT22;10066;48.108;11.448;2023-06-26T00:05:50;16.20;99.90
19813;DHT22;10066;48.108;11.448;2023-06-26T00:08:17;16.20;99.90
19813;DHT22;10066;48.108;11.448;2023-06-26T00:10:44;16.20;99.90
19813;DHT22;10066;48.108;11.448;2023-06-26T00:13:13;16.20;99.90
19813;DHT22;10066;48.108;11.448;2023-06-26T00:15:40;16.20;99.90
19813;DHT22;10066;48.108;11.448;2023-06-26T00:18:06;16.10;99.90
19813;DHT22;10066;48.108;11.448;2023-06-26T00:20:33;16.10;99.90
19813;DHT22;10066;48.108;11.448;2023-06-26T00:23:00;16.10;99.90
19813;DHT22;10066;48.108;11.448;2023-06-26T00:25:29;16.10;99.90
19813;DHT22;10066;48.108;11.448;2023-06-26T00:27:56;16.00;99.90
19813;DHT22;10066;48.108;11.448;2023-06-26T00:30:24;16.00;99.90
19813;DHT22;10066;48.108;11.448;2023-06-26T00:32:51;16.00;99.90
19813;DHT22;10066;48.108;11.448;2023-06-26T00:35:18;16.00;99.90
19813;DHT22;10066;48.108;11.448;2023-06-26T00:37:45;15.90;99.90
19813;DHT22;10066;48.108;11.448;2023-06-26T00:40:12;15.90;99.90
19813;DHT22;10066;48.108;11.448;2023-06-26T00:42:39;15.90;99.90
19813;DHT22;10066;48.108;11.448;2023-06-26T00:45:07;15.90;99.90
19813;DHT22;10066;48.108;11.448;2023-06-26T00:47:35;15.90;99.90
19813;DHT22;10066;48.108;11.448;2023-06-26T00:50:04;15.90;99.90
19813;DHT22;10066;48.108;11.448;2023-06-26T00:52:31;15.80;99.90
19813;DHT22;10066;48.108;11.448;2023-06-26T00:54:58;15.80;99.90
19813;DHT22;10066;48.108;11.448;2023-06-26T00:57:25;15.80;99.90
19813;DHT22;10066;48.108;11.448;2023-06-26T00:59:53;15.80;99.90
19813;DHT22;10066;48.108;11.448;2023-06-26T01:02:20;15.80;99.90
19813;DHT22;10066;48.108;11.448;2023-06-26T01:04:48;15.70;99.90
19813;DHT22;10066;48.108;11.448;2023-06-26T01:07:16;15.70;99.90
19813;DHT22;10066;48.108;11.448;2023-06-26T01:09:45;15.70;99.90
19813;DHT22;10066;48.108;11.448;2023-06-26T01:12:12;15.60;99.90
19813;DHT22;10066;48.108;11.448;2023-06-26T01:14:39;15.60;99.90
19813;DHT22;10066;48.108;11.448;2023-06-26T01:17:08;15.60;99.90
19813;DHT22;10066;48.108;11.448;2023-06-26T01:19:37;15.60;99.90
19813;DHT22;10066;48.108;11.448;2023-06-26T01:22:18;15.50;99.90
19813;DHT22;10066;48.108;11.448;2023-06-26T01:24:56;15.50;99.90
19813;DHT22;10066;48.108;11.448;2023-06-26T01:27:33;15.50;99.90
19813;DHT22;10066;48.108;11.448;2023-06-26T01:30:02;15.40;99.90
19813;DHT22;10066;48.108;11.448;2023-06-26T01:32:29;15.40;99.90
19813;DHT22;10066;48.108;11.448;2023-06-26T01:34:58;15.40;99.90
19813;DHT22;10066;48.108;11.448;2023-06-26T01:37:25;15.30;99.90
19813;DHT22;10066;48.108;11.448;2023-06-26T01:39:52;15.30;99.90
19813;DHT22;10066;48.108;11.448;2023-06-26T01:42:19;15.30;99.90
19813;DHT22;10066;48.108;11.448;2023-06-26T01:44:48;15.30;99.90
19813;DHT22;10066;48.108;11.448;2023-06-26T01:47:21;15.30;99.90
19813;DHT22;10066;48.108;11.448;2023-06-26T01:49:52;15.30;99.90
19813;DHT22;10066;48.108;11.448;2023-06-26T01:52:25;15.30;99.90
19813;DHT22;10066;48.108;11.448;2023-06-26T01:54:58;15.30;99.90
19813;DHT22;10066;48.108;11.448;2023-06-26T01:57:30;15.20;99.90
19813;DHT22;10066;48.108;11.448;2023-06-26T02:00:00;15.20;99.90
19813;DHT22;10066;48.108;11.448;2023-06-26T02:02:29;15.20;99.90
19813;DHT22;10066;48.108;11.448;2023-06-26T02:04:56;15.20;99.90
19813;DHT22;10066;48.108;11.448;2023-06-26T02:07:23;15.10;99.90
19813;DHT22;10066;48.108;11.448;2023-06-26T02:09:49;15.20;99.90
19813;DHT22;10066;48.108;11.448;2023-06-26T02:12:16;15.10;99.90
19813;DHT22;10066;48.108;11.448;2023-06-26T02:14:44;15.10;99.90
19813;DHT22;10066;48.108;11.448;2023-06-26T02:17:12;15.10;99.90
19813;DHT22;10066;48.108;11.448;2023-06-26T02:19:39;15.10;99.90
19813;DHT22;10066;48.108;11.448;2023-06-26T02:22:10;15.00;99.90
19813;DHT22;10066;48.108;11.448;2023-06-26T02:24:37;15.00;99.90
19813;DHT22;10066;48.108;11.448;2023-06-26T02:27:04;15.00;99.90
19813;DHT22;10066;48.108;11.448;2023-06-26T02:29:31;14.90;99.90
19813;DHT22;10066;48.108;11.448;2023-06-26T02:31:58;14.90;99.90
19813;DHT22;10066;48.108;11.448;2023-06-26T02:34:26;14.90;99.90
19813;DHT22;10066;48.108;11.448;2023-06-26T02:36:53;14.80;99.90
19813;DHT22;10066;48.108;11.448;2023-06-26T02:39:20;14.80;99.90
19813;DHT22;10066;48.108;11.448;2023-06-26T02:41:47;14.80;99.90
19813;DHT22;10066;48.108;11.448;2023-06-26T02:44:14;14.80;99.90
19813;DHT22;10066;48.108;11.448;2023-06-26T02:46:41;14.80;99.90
19813;DHT22;10066;48.108;11.448;2023-06-26T02:49:08;14.80;99.90
19813;DHT22;10066;48.108;11.448;2023-06-26T02:51:36;14.80;99.90
19813;DHT22;10066;48.108;11.448;2023-06-26T02:54:03;14.80;99.90
19813;DHT22;10066;48.108;11.448;2023-06-26T02:56:30;14.80;99.90
19813;DHT22;10066;48.108;11.448;2023-06-26T02:58:57;14.80;99.90
19813;DHT22;10066;48.108;11.448;2023-06-26T03:01:24;14.80;99.90
19813;DHT22;10066;48.108;11.448;2023-06-26T03:03:52;14.80;99.90
19813;DHT22;10066;48.108;11.448;2023-06-26T03:06:18;14.80;99.90
19813;DHT22;10066;48.108;11.448;2023-06-26T03:08:47;14.80;99.90
19813;DHT22;10066;48.108;11.448;2023-06-26T03:11:15;14.80;99.90
19813;DHT22;10066;48.108;11.448;2023-06-26T03:13:41;14.80;99.90
19813;DHT22;10066;48.108;11.448;2023-06-26T03:16:09;14.80;99.90
19813;DHT22;10066;48.108;11.448;2023-06-26T03:18:35;14.80;99.90
19813;DHT22;10066;48.108;11.448;2023-06-26T03:21:02;14.80;99.90
19813;DHT22;10066;48.108;11.448;2023-06-26T03:23:29;14.70;99.90
19813;DHT22;10066;48.108;11.448;2023-06-26T03:25:58;14.80;99.90
19813;DHT22;10066;48.108;11.448;2023-06-26T03:28:24;14.80;99.90
19813;DHT22;10066;48.108;11.448;2023-06-26T03:30:51;14.80;99.90
19813;DHT22;10066;48.108;11.448;2023-06-26T03:33:18;14.80;99.90
19813;DHT22;10066;48.108;11.448;2023-06-26T03:35:45;14.80;99.90
19813;DHT22;10066;48.108;11.448;2023-06-26T03:38:12;14.90;99.90
19813;DHT22;10066;48.108;11.448;2023-06-26T03:40:39;14.80;99.90
19813;DHT22;10066;48.108;11.448;2023-06-26T03:43:07;14.90;99.90
19813;DHT22;10066;48.108;11.448;2023-06-26T03:45:34;14.90;99.90
19813;DHT22;10066;48.108;11.448;2023-06-26T03:48:01;14.90;99.90
19813;DHT22;10066;48.108;11.448;2023-06-26T03:50:28;14.90;99.90
19813;DHT22;10066;48.108;11.448;2023-06-26T03:52:55;14.90;99.90
19813;DHT22;10066;48.108;11.448;2023-06-26T03:55:22;15.00;99.90
19813;DHT22;10066;48.108;11.448;2023-06-26T03:57:49;15.00;99.90
19813;DHT22;10066;48.108;11.448;2023-06-26T04:00:18;15.10;99.90
19813;DHT22;10066;48.108;11.448;2023-06-26T04:02:45;15.10;99.90
19813;DHT22;10066;48.108;11.448;2023-06-26T04:05:12;15.20;99.90
19813;DHT22;10066;48.108;11.448;2023-06-26T04:07:40;15.20;99.90
19813;DHT22;10066;48.108;11.448;2023-06-26T04:10:07;15.20;99.90
19813;DHT22;10066;48.108;11.448;2023-06-26T04:12:34;15.30;99.90
19813;DHT22;10066;48.108;11.448;2023-06-26T04:15:01;15.60;99.90
19813;DHT22;10066;48.108;11.448;2023-06-26T04:17:29;16.40;99.90
19813;DHT22;10066;48.108;11.448;2023-06-26T04:19:56;17.30;99.90
19813;DHT22;10066;48.108;11.448;2023-06-26T04:22:23;18.20;99.90
19813;DHT22;10066;48.108;11.448;2023-06-26T04:24:51;19.00;99.90
19813;DHT22;10066;48.108;11.448;2023-06-26T04:27:18;19.80;99.90
19813;DHT22;10066;48.108;11.448;2023-06-26T04:29:45;21.20;99.90
19813;DHT22;10066;48.108;11.448;2023-06-26T04:32:12;21.10;99.90
19813;DHT22;10066;48.108;11.448;2023-06-26T04:34:40;21.70;99.90
19813;DHT22;10066;48.108;11.448;2023-06-26T04:37:09;22.20;99.90
19813;DHT22;10066;48.108;11.448;2023-06-26T04:39:36;22.70;99.90
19813;DHT22;10066;48.108;11.448;2023-06-26T04:42:04;23.10;99.90
19813;DHT22;10066;48.108;11.448;2023-06-26T04:44:32;24.10;98.60
19813;DHT22;10066;48.108;11.448;2023-06-26T04:46:59;23.90;99.90
19813;DHT22;10066;48.108;11.448;2023-06-26T04:49:25;24.40;99.90
19813;DHT22;10066;48.108;11.448;2023-06-26T04:51:55;24.70;99.90
19813;DHT22;10066;48.108;11.448;2023-06-26T04:54:25;25.20;99.90
19813;DHT22;10066;48.108;11.448;2023-06-26T04:56:53;25.60;99.90
19813;DHT22;10066;48.108;11.448;2023-06-26T05:01:47;26.50;90.60
19813;DHT22;10066;48.108;11.448;2023-06-26T05:09:10;27.90;84.40
19813;DHT22;10066;48.108;11.448;2023-06-26T05:11:37;28.20;82.90
19813;DHT22;10066;48.108;11.448;2023-06-26T05:14:04;27.60;82.90
19813;DHT22;10066;48.108;11.448;2023-06-26T05:16:33;26.80;83.70
19813;DHT22;10066;48.108;11.448;2023-06-26T05:19:00;26.10;84.90
19813;DHT22;10066;48.108;11.448;2023-06-26T05:21:28;25.50;85.30
19813;DHT22;10066;48.108;11.448;2023-06-26T05:23:56;24.90;86.30
19813;DHT22;10066;48.108;11.448;2023-06-26T05:26:26;24.40;86.80
19813;DHT22;10066;48.108;11.448;2023-06-26T05:28:54;24.10;87.30
19813;DHT22;10066;48.108;11.448;2023-06-26T05:31:21;23.70;87.50
19813;DHT22;10066;48.108;11.448;2023-06-26T05:33:49;23.50;88.60
19813;DHT22;10066;48.108;11.448;2023-06-26T05:36:18;23.30;89.00
19813;DHT22;10066;48.108;11.448;2023-06-26T05:38:45;23.00;89.50
19813;DHT22;10066;48.108;11.448;2023-06-26T05:41:14;22.80;90.20
19813;DHT22;10066;48.108;11.448;2023-06-26T05:43:42;22.70;90.60
19813;DHT22;10066;48.108;11.448;2023-06-26T05:46:09;22.50;90.50
19813;DHT22;10066;48.108;11.448;2023-06-26T05:48:36;22.50;91.00
19813;DHT22;10066;48.108;11.448;2023-06-26T05:51:03;22.40;91.00
19813;DHT22;10066;48.108;11.448;2023-06-26T05:53:31;22.40;91.10
19813;DHT22;10066;48.108;11.448;2023-06-26T05:55:58;22.40;91.20
19813;DHT22;10066;48.108;11.448;2023-06-26T05:58:26;22.40;91.20
19813;DHT22;10066;48.108;11.448;2023-06-26T06:00:55;22.40;91.40
19813;DHT22;10066;48.108;11.448;2023-06-26T06:03:23;22.50;91.50
19813;DHT22;10066;48.108;11.448;2023-06-26T06:05:50;22.50;91.40
19813;DHT22;10066;48.108;11.448;2023-06-26T06:08:16;22.50;91.40
19813;DHT22;10066;48.108;11.448;2023-06-26T06:10:43;22.50;91.20
19813;DHT22;10066;48.108;11.448;2023-06-26T06:13:10;22.50;90.80
19813;DHT22;10066;48.108;11.448;2023-06-26T06:15:37;22.50;90.70
19813;DHT22;10066;48.108;11.448;2023-06-26T06:18:06;22.60;90.60
19813;DHT22;10066;48.108;11.448;2023-06-26T06:20:33;22.60;90.60
19813;DHT22;10066;48.108;11.448;2023-06-26T06:23:00;22.60;90.80
19813;DHT22;10066;48.108;11.448;2023-06-26T06:25:27;22.70;91.00
19813;DHT22;10066;48.108;11.448;2023-06-26T06:27:54;23.00;90.90
19813;DHT22;10066;48.108;11.448;2023-06-26T06:30:21;24.20;88.50
19813;DHT22;10066;48.108;11.448;2023-06-26T06:32:48;25.80;84.80
19813;DHT22;10066;48.108;11.448;2023-06-26T06:35:18;28.10;78.50
19813;DHT22;10066;48.108;11.448;2023-06-26T06:37:45;28.70;77.90
19813;DHT22;10066;48.108;11.448;2023-06-26T06:40:13;29.80;74.00
19813;DHT22;10066;48.108;11.448;2023-06-26T06:42:39;30.80;70.00
19813;DHT22;10066;48.108;11.448;2023-06-26T06:45:07;31.60;67.90
19813;DHT22;10066;48.108;11.448;2023-06-26T06:47:34;32.30;65.80
19813;DHT22;10066;48.108;11.448;2023-06-26T06:50:02;33.00;63.30
19813;DHT22;10066;48.108;11.448;2023-06-26T06:52:38;33.70;61.30
19813;DHT22;10066;48.108;11.448;2023-06-26T06:55:07;34.20;59.60
19813;DHT22;10066;48.108;11.448;2023-06-26T06:57:35;34.70;57.50
19813;DHT22;10066;48.108;11.448;2023-06-26T07:00:04;35.00;56.40
19813;DHT22;10066;48.108;11.448;2023-06-26T07:02:34;35.30;54.60
19813;DHT22;10066;48.108;11.448;2023-06-26T07:05:01;35.50;52.70
19813;DHT22;10066;48.108;11.448;2023-06-26T07:07:29;35.50;52.00
19813;DHT22;10066;48.108;11.448;2023-06-26T07:09:59;35.30;51.70
19813;DHT22;10066;48.108;11.448;2023-06-26T07:12:26;35.30;50.70
19813;DHT22;10066;48.108;11.448;2023-06-26T07:14:53;35.00;50.60
19813;DHT22;10066;48.108;11.448;2023-06-26T07:17:20;34.10;51.00
19813;DHT22;10066;48.108;11.448;2023-06-26T07:19:47;33.00;52.60
19813;DHT22;10066;48.108;11.448;2023-06-26T07:22:14;32.10;53.50
19813;DHT22;10066;48.108;11.448;2023-06-26T07:24:41;31.10;53.90
19813;DHT22;10066;48.108;11.448;2023-06-26T07:27:10;30.30;55.30
19813;DHT22;10066;48.108;11.448;2023-06-26T07:29:37;29.70;56.40
19813;DHT22;10066;48.108;11.448;2023-06-26T07:32:04;29.20;57.80
19813;DHT22;10066;48.108;11.448;2023-06-26T07:34:31;28.90;58.60
19813;DHT22;10066;48.108;11.448;2023-06-26T07:36:58;28.40;58.90
19813;DHT22;10066;48.108;11.448;2023-06-26T07:39:25;28.20;60.30
19813;DHT22;10066;48.108;11.448;2023-06-26T07:41:52;27.90;60.60
19813;DHT22;10066;48.108;11.448;2023-06-26T07:44:21;27.70;60.10
19813;DHT22;10066;48.108;11.448;2023-06-26T07:46:48;27.50;60.80
19813;DHT22;10066;48.108;11.448;2023-06-26T07:49:15;27.30;61.10
19813;DHT22;10066;48.108;11.448;2023-06-26T07:51:42;27.10;62.20
19813;DHT22;10066;48.108;11.448;2023-06-26T07:54:09;27.10;63.20
19813;DHT22;10066;48.108;11.448;2023-06-26T07:56:52;27.10;63.70
19813;DHT22;10066;48.108;11.448;2023-06-26T07:59:21;27.10;64.20
19813;DHT22;10066;48.108;11.448;2023-06-26T08:01:48;27.10;63.90
19813;DHT22;10066;48.108;11.448;2023-06-26T08:04:15;27.10;65.00
19813;DHT22;10066;48.108;11.448;2023-06-26T08:06:42;27.20;65.20
19813;DHT22;10066;48.108;11.448;2023-06-26T08:09:10;27.20;65.00
19813;DHT22;10066;48.108;11.448;2023-06-26T08:11:38;27.30;65.40
19813;DHT22;10066;48.108;11.448;2023-06-26T08:14:05;27.40;65.60
19813;DHT22;10066;48.108;11.448;2023-06-26T08:16:33;27.50;65.40
19813;DHT22;10066;48.108;11.448;2023-06-26T08:19:00;27.50;64.80
19813;DHT22;10066;48.108;11.448;2023-06-26T08:21:27;27.50;64.70
19813;DHT22;10066;48.108;11.448;2023-06-26T08:23:54;27.50;64.80
19813;DHT22;10066;48.108;11.448;2023-06-26T08:26:21;27.60;64.90
19813;DHT22;10066;48.108;11.448;2023-06-26T08:28:48;27.60;64.70
19813;DHT22;10066;48.108;11.448;2023-06-26T08:31:15;27.70;65.30
19813;DHT22;10066;48.108;11.448;2023-06-26T08:33:43;27.80;66.10
19813;DHT22;10066;48.108;11.448;2023-06-26T08:36:10;27.90;65.50
19813;DHT22;10066;48.108;11.448;2023-06-26T08:38:37;28.00;65.40
19813;DHT22;10066;48.108;11.448;2023-06-26T08:41:05;28.10;65.40
19813;DHT22;10066;48.108;11.448;2023-06-26T08:43:33;28.20;65.40
19813;DHT22;10066;48.108;11.448;2023-06-26T08:46:00;28.30;65.60
19813;DHT22;10066;48.108;11.448;2023-06-26T08:48:29;28.40;64.60
19813;DHT22;10066;48.108;11.448;2023-06-26T08:51:01;28.30;63.00
19813;DHT22;10066;48.108;11.448;2023-06-26T08:53:36;28.30;64.00
19813;DHT22;10066;48.108;11.448;2023-06-26T08:56:07;28.30;63.80
19813;DHT22;10066;48.108;11.448;2023-06-26T08:58:35;28.40;63.40
19813;DHT22;10066;48.108;11.448;2023-06-26T09:01:04;28.50;62.70
19813;DHT22;10066;48.108;11.448;2023-06-26T09:03:32;28.50;63.00
19813;DHT22;10066;48.108;11.448;2023-06-26T09:06:00;28.60;63.00
19813;DHT22;10066;48.108;11.448;2023-06-26T09:08:27;28.70;62.10
19813;DHT22;10066;48.108;11.448;2023-06-26T09:10:54;28.60;60.20
19813;DHT22;10066;48.108;11.448;2023-06-26T09:13:21;28.70;61.20
19813;DHT22;10066;48.108;11.448;2023-06-26T09:15:48;28.70;60.50
19813;DHT22;10066;48.108;11.448;2023-06-26T09:18:17;28.60;59.40
19813;DHT22;10066;48.108;11.448;2023-06-26T09:20:45;28.60;59.70
19813;DHT22;10066;48.108;11.448;2023-06-26T09:23:13;28.50;60.00
19813;DHT22;10066;48.108;11.448;2023-06-26T09:25:40;28.50;60.20
19813;DHT22;10066;48.108;11.448;2023-06-26T09:28:08;28.60;60.40
19813;DHT22;10066;48.108;11.448;2023-06-26T09:30:36;28.70;60.70
19813;DHT22;10066;48.108;11.448;2023-06-26T09:33:13;28.80;60.10
19813;DHT22;10066;48.108;11.448;2023-06-26T09:35:40;28.80;59.80
19813;DHT22;10066;48.108;11.448;2023-06-26T09:38:07;28.80;60.40
19813;DHT22;10066;48.108;11.448;2023-06-26T09:40:35;28.90;61.00
19813;DHT22;10066;48.108;11.448;2023-06-26T09:43:04;28.90;61.40
19813;DHT22;10066;48.108;11.448;2023-06-26T09:45:31;29.10;60.70
19813;DHT22;10066;48.108;11.448;2023-06-26T09:48:00;29.20;60.30
19813;DHT22;10066;48.108;11.448;2023-06-26T09:50:27;29.30;60.20
19813;DHT22;10066;48.108;11.448;2023-06-26T09:52:55;29.40;57.80
19813;DHT22;10066;48.108;11.448;2023-06-26T09:55:22;29.30;58.40
19813;DHT22;10066;48.108;11.448;2023-06-26T09:57:51;29.30;58.90
19813;DHT22;10066;48.108;11.448;2023-06-26T10:00:19;29.10;57.80
19813;DHT22;10066;48.108;11.448;2023-06-26T10:02:46;29.00;57.30
19813;DHT22;10066;48.108;11.448;2023-06-26T10:05:13;28.80;57.20
19813;DHT22;10066;48.108;11.448;2023-06-26T10:07:40;28.80;57.90
19813;DHT22;10066;48.108;11.448;2023-06-26T10:10:08;28.90;58.10
19813;DHT22;10066;48.108;11.448;2023-06-26T10:12:37;29.00;58.00
19813;DHT22;10066;48.108;11.448;2023-06-26T10:15:06;29.30;58.20
19813;DHT22;10066;48.108;11.448;2023-06-26T10:17:39;29.50;57.00
19813;DHT22;10066;48.108;11.448;2023-06-26T10:20:09;29.80;56.50
19813;DHT22;10066;48.108;11.448;2023-06-26T10:22:41;30.00;56.40
19813;DHT22;10066;48.108;11.448;2023-06-26T10:25:09;30.20;56.00
19813;DHT22;10066;48.108;11.448;2023-06-26T10:27:40;30.40;55.50
19813;DHT22;10066;48.108;11.448;2023-06-26T10:30:13;30.50;55.60
19813;DHT22;10066;48.108;11.448;2023-06-26T10:32:41;30.50;53.40
19813;DHT22;10066;48.108;11.448;2023-06-26T10:35:10;30.40;53.30
19813;DHT22;10066;48.108;11.448;2023-06-26T10:37:44;30.30;53.60
19813;DHT22;10066;48.108;11.448;2023-06-26T10:40:11;30.40;54.00
19813;DHT22;10066;48.108;11.448;2023-06-26T10:42:39;30.30;53.60
19813;DHT22;10066;48.108;11.448;2023-06-26T10:45:14;30.40;54.20
19813;DHT22;10066;48.108;11.448;2023-06-26T10:47:41;30.20;52.50
19813;DHT22;10066;48.108;11.448;2023-06-26T10:50:19;30.00;53.20
19813;DHT22;10066;48.108;11.448;2023-06-26T10:53:09;30.00;54.00
19813;DHT22;10066;48.108;11.448;2023-06-26T10:55:36;30.10;53.70
19813;DHT22;10066;48.108;11.448;2023-06-26T10:58:04;30.30;54.40
19813;DHT22;10066;48.108;11.448;2023-06-26T11:00:32;30.40;53.90
19813;DHT22;10066;48.108;11.448;2023-06-26T11:02:59;30.40;53.20
19813;DHT22;10066;48.108;11.448;2023-06-26T11:05:27;30.40;53.60
19813;DHT22;10066;48.108;11.448;2023-06-26T11:08:05;30.50;53.00
19813;DHT22;10066;48.108;11.448;2023-06-26T11:10:52;30.60;52.80
19813;DHT22;10066;48.108;11.448;2023-06-26T11:13:19;30.50;51.90
19813;DHT22;10066;48.108;11.448;2023-06-26T11:15:49;30.60;52.30
19813;DHT22;10066;48.108;11.448;2023-06-26T11:18:16;30.60;51.90
19813;DHT22;10066;48.108;11.448;2023-06-26T11:20:43;30.70;52.40
19813;DHT22;10066;48.108;11.448;2023-06-26T11:23:10;30.70;52.60
19813;DHT22;10066;48.108;11.448;2023-06-26T11:25:38;30.70;53.00
19813;DHT22;10066;48.108;11.448;2023-06-26T11:28:05;30.90;53.10
19813;DHT22;10066;48.108;11.448;2023-06-26T11:30:32;31.20;53.20
19813;DHT22;10066;48.108;11.448;2023-06-26T11:33:12;31.40;53.10
19813;DHT22;10066;48.108;11.448;2023-06-26T11:35:39;31.10;51.20
19813;DHT22;10066;48.108;11.448;2023-06-26T11:38:06;30.90;52.20
19813;DHT22;10066;48.108;11.448;2023-06-26T11:40:35;30.80;52.30
19813;DHT22;10066;48.108;11.448;2023-06-26T11:43:03;30.50;50.90
19813;DHT22;10066;48.108;11.448;2023-06-26T11:45:31;30.50;51.40
19813;DHT22;10066;48.108;11.448;2023-06-26T11:47:58;30.50;51.80
19813;DHT22;10066;48.108;11.448;2023-06-26T11:50:27;30.50;51.70
19813;DHT22;10066;48.108;11.448;2023-06-26T11:52:54;30.60;52.50
19813;DHT22;10066;48.108;11.448;2023-06-26T11:55:22;30.70;52.20
19813;DHT22;10066;48.108;11.448;2023-06-26T11:57:52;30.90;52.60
19813;DHT22;10066;48.108;11.448;2023-06-26T12:00:20;31.00;53.20
19813;DHT22;10066;48.108;11.448;2023-06-26T12:02:47;31.30;53.00
19813;DHT22;10066;48.108;11.448;2023-06-26T12:05:15;31.40;52.90
19813;DHT22;10066;48.108;11.448;2023-06-26T12:07:46;31.60;53.00
19813;DHT22;10066;48.108;11.448;2023-06-26T12:10:14;31.60;53.10
19813;DHT22;10066;48.108;11.448;2023-06-26T12:12:41;31.70;52.80
19813;DHT22;10066;48.108;11.448;2023-06-26T12:15:10;31.80;52.50
19813;DHT22;10066;48.108;11.448;2023-06-26T12:17:38;31.90;51.90
19813;DHT22;10066;48.108;11.448;2023-06-26T12:20:17;31.90;49.80
19813;DHT22;10066;48.108;11.448;2023-06-26T12:22:47;31.60;48.50
19813;DHT22;10066;48.108;11.448;2023-06-26T12:25:14;31.50;49.30
19813;DHT22;10066;48.108;11.448;2023-06-26T12:27:44;31.60;49.90
19813;DHT22;10066;48.108;11.448;2023-06-26T12:30:11;31.60;50.30
19813;DHT22;10066;48.108;11.448;2023-06-26T12:32:38;31.70;50.70
19813;DHT22;10066;48.108;11.448;2023-06-26T12:35:06;31.80;50.40
19813;DHT22;10066;48.108;11.448;2023-06-26T12:37:36;31.90;50.80
19813;DHT22;10066;48.108;11.448;2023-06-26T12:40:16;32.00;50.80
19813;DHT22;10066;48.108;11.448;2023-06-26T12:42:45;31.90;51.00
19813;DHT22;10066;48.108;11.448;2023-06-26T12:45:13;31.50;50.40
19813;DHT22;10066;48.108;11.448;2023-06-26T12:47:41;31.40;51.30
19813;DHT22;10066;48.108;11.448;2023-06-26T12:50:08;31.40;51.10
19813;DHT22;10066;48.108;11.448;2023-06-26T12:52:35;31.40;51.60
19813;DHT22;10066;48.108;11.448;2023-06-26T12:55:02;31.50;51.70
19813;DHT22;10066;48.108;11.448;2023-06-26T12:57:31;31.60;51.20
19813;DHT22;10066;48.108;11.448;2023-06-26T12:59:57;31.80;51.00
19813;DHT22;10066;48.108;11.448;2023-06-26T13:02:26;31.80;50.60
19813;DHT22;10066;48.108;11.448;2023-06-26T13:04:53;32.00;50.60
19813;DHT22;10066;48.108;11.448;2023-06-26T13:07:20;32.00;49.30
19813;DHT22;10066;48.108;11.448;2023-06-26T13:09:50;32.00;48.90
19813;DHT22;10066;48.108;11.448;2023-06-26T13:12:17;32.00;48.90
19813;DHT22;10066;48.108;11.448;2023-06-26T13:14:45;31.80;49.00
19813;DHT22;10066;48.108;11.448;2023-06-26T13:17:12;31.60;49.60
19813;DHT22;10066;48.108;11.448;2023-06-26T13:19:39;31.60;50.00
19813;DHT22;10066;48.108;11.448;2023-06-26T13:22:06;31.40;50.20
19813;DHT22;10066;48.108;11.448;2023-06-26T13:24:33;31.20;50.30
19813;DHT22;10066;48.108;11.448;2023-06-26T13:27:00;31.30;50.30
19813;DHT22;10066;48.108;11.448;2023-06-26T13:29:28;31.30;50.10
19813;DHT22;10066;48.108;11.448;2023-06-26T13:31:56;31.30;50.10
19813;DHT22;10066;48.108;11.448;2023-06-26T13:34:24;31.20;50.30
19813;DHT22;10066;48.108;11.448;2023-06-26T13:36:53;31.30;50.80
19813;DHT22;10066;48.108;11.448;2023-06-26T13:39:20;31.40;51.30
19813;DHT22;10066;48.108;11.448;2023-06-26T13:41:47;31.60;51.30
19813;DHT22;10066;48.108;11.448;2023-06-26T13:44:14;31.80;51.00
19813;DHT22;10066;48.108;11.448;2023-06-26T13:46:42;32.00;51.30
19813;DHT22;10066;48.108;11.448;2023-06-26T13:49:11;32.10;50.90
19813;DHT22;10066;48.108;11.448;2023-06-26T13:51:38;32.30;50.40
19813;DHT22;10066;48.108;11.448;2023-06-26T13:54:11;32.50;50.40
19813;DHT22;10066;48.108;11.448;2023-06-26T13:56:39;32.50;50.80
19813;DHT22;10066;48.108;11.448;2023-06-26T13:59:06;32.40;50.60
19813;DHT22;10066;48.108;11.448;2023-06-26T14:01:33;32.10;50.70
19813;DHT22;10066;48.108;11.448;2023-06-26T14:04:00;32.00;51.10
19813;DHT22;10066;48.108;11.448;2023-06-26T14:06:28;31.80;51.20
19813;DHT22;10066;48.108;11.448;2023-06-26T14:08:57;31.60;51.50
19813;DHT22;10066;48.108;11.448;2023-06-26T14:11:25;31.30;51.60
19813;DHT22;10066;48.108;11.448;2023-06-26T14:13:52;31.20;52.00
19813;DHT22;10066;48.108;11.448;2023-06-26T14:16:19;31.20;52.30
19813;DHT22;10066;48.108;11.448;2023-06-26T14:18:46;31.20;52.10
19813;DHT22;10066;48.108;11.448;2023-06-26T14:21:14;31.00;52.00
19813;DHT22;10066;48.108;11.448;2023-06-26T14:23:43;31.00;52.40
19813;DHT22;10066;48.108;11.448;2023-06-26T14:26:10;31.10;52.10
19813;DHT22;10066;48.108;11.448;2023-06-26T14:28:38;31.00;52.00
19813;DHT22;10066;48.108;11.448;2023-06-26T14:31:05;30.90;52.20
19813;DHT22;10066;48.108;11.448;2023-06-26T14:33:32;30.90;51.80
19813;DHT22;10066;48.108;11.448;2023-06-26T14:35:59;30.80;51.30
19813;DHT22;10066;48.108;11.448;2023-06-26T14:38:26;30.70;51.50
19813;DHT22;10066;48.108;11.448;2023-06-26T14:40:54;30.60;51.50
19813;DHT22;10066;48.108;11.448;2023-06-26T14:43:21;30.60;52.00
19813;DHT22;10066;48.108;11.448;2023-06-26T14:45:49;30.60;51.80
19813;DHT22;10066;48.108;11.448;2023-06-26T14:48:16;30.60;51.70
19813;DHT22;10066;48.108;11.448;2023-06-26T14:50:44;30.70;51.90
19813;DHT22;10066;48.108;11.448;2023-06-26T14:53:11;30.90;52.10
19813;DHT22;10066;48.108;11.448;2023-06-26T14:55:38;31.00;52.10
19813;DHT22;10066;48.108;11.448;2023-06-26T14:58:07;31.10;52.40
19813;DHT22;10066;48.108;11.448;2023-06-26T15:00:34;31.10;52.00
19813;DHT22;10066;48.108;11.448;2023-06-26T15:03:01;31.00;51.70
19813;DHT22;10066;48.108;11.448;2023-06-26T15:05:28;31.00;51.90
19813;DHT22;10066;48.108;11.448;2023-06-26T15:07:55;31.00;52.10
19813;DHT22;10066;48.108;11.448;2023-06-26T15:10:21;31.00;52.60
19813;DHT22;10066;48.108;11.448;2023-06-26T15:12:49;30.90;52.50
19813;DHT22;10066;48.108;11.448;2023-06-26T15:15:18;30.90;52.30
19813;DHT22;10066;48.108;11.448;2023-06-26T15:17:49;30.80;52.40
19813;DHT22;10066;48.108;11.448;2023-06-26T15:20:16;30.70;52.20
19813;DHT22;10066;48.108;11.448;2023-06-26T15:22:43;30.60;52.10
19813;DHT22;10066;48.108;11.448;2023-06-26T15:25:10;30.60;52.10
19813;DHT22;10066;48.108;11.448;2023-06-26T15:27:37;30.60;52.10